sensor_id;sensor_type;location;lat;lon;timestamp;pressure;altitude;pressure_sealevel;temperature;humidity
36834;BME280;48003;52.084;5.224;2023-11-21T00:02:46;101134.0;;;9.99;88.23
36834;BME280;48003;52.084;5.224;2023-11-21T00:04:23;101135.0;;;9.94;88.32
36834;BME280;48003;52.084;5.224;2023-11-21T00:05:59;101134.0;;;9.96;88.87
36834;BME280;48003;52.084;5.224;2023-11-21T00:09:11;101135.0;;;9.98;88.79
36834;BME280;48003;52.084;5.224;2023-11-21T00:10:47;101135.0;;;9.98;88.66
36834;BME280;48003;52.084;5.224;2023-11-21T00:12:23;101144.0;;;9.96;88.38
36834;BME280;48003;52.084;5.224;2023-11-21T00:13:59;101145.0;;;9.92;88.01
36834;BME280;48003;52.084;5.224;2023-11-21T00:17:11;101143.0;;;9.89;87.88
36834;BME280;48003;52.084;5.224;2023-11-21T00:18:47;101148.0;;;9.88;87.96
36834;BME280;48003;52.084;5.224;2023-11-21T00:20:23;101152.0;;;9.85;87.9
36834;BME280;48003;52.084;5.224;2023-11-21T00:23:36;101148.0;;;9.81;87.89
36834;BME280;48003;52.084;5.224;2023-11-21T00:25:12;101152.0;;;9.8;87.74
36834;BME280;48003;52.084;5.224;2023-11-21T00:26:49;101150.0;;;9.75;87.59
36834;BME280;48003;52.084;5.224;2023-11-21T00:30:03;101151.0;;;9.72;87.81
36834;BME280;48003;52.084;5.224;2023-11-21T00:31:39;101150.0;;;9.69;87.84
36834;BME280;48003;52.084;5.224;2023-11-21T00:33:15;101150.0;;;9.65;88.43
36834;BME280;48003;52.084;5.224;2023-11-21T00:34:51;101151.0;;;9.64;88.29
36834;BME280;48003;52.084;5.224;2023-11-21T00:38:03;101150.0;;;9.65;88.21
36834;BME280;48003;52.084;5.224;2023-11-21T00:39:39;101149.0;;;9.65;88.1
36834;BME280;48003;52.084;5.224;2023-11-21T00:41:16;101149.0;;;9.63;87.92
36834;BME280;48003;52.084;5.224;2023-11-21T00:44:28;101150.0;;;9.59;87.63
36834;BME280;48003;52.084;5.224;2023-11-21T00:46:04;101155.0;;;9.6;87.88
36834;BME280;48003;52.084;5.224;2023-11-21T00:47:40;101158.0;;;9.61;88.09
36834;BME280;48003;52.084;5.224;2023-11-21T00:50:52;101159.0;;;9.58;87.89
36834;BME280;48003;52.084;5.224;2023-11-21T00:52:28;101155.0;;;9.55;87.89
36834;BME280;48003;52.084;5.224;2023-11-21T00:54:05;101159.0;;;9.5;87.93
36834;BME280;48003;52.084;5.224;2023-11-21T00:57:17;101164.0;;;9.46;88.28
36834;BME280;48003;52.084;5.224;2023-11-21T00:58:54;101166.0;;;9.46;88.56
36834;BME280;48003;52.084;5.224;2023-11-21T01:00:30;101168.0;;;9.47;88.59
36834;BME280;48003;52.084;5.224;2023-11-21T01:02:06;101173.0;;;9.46;88.54
36834;BME280;48003;52.084;5.224;2023-11-21T01:05:18;101177.0;;;9.47;88.6
36834;BME280;48003;52.084;5.224;2023-11-21T01:06:54;101178.0;;;9.48;88.92
36834;BME280;48003;52.084;5.224;2023-11-21T01:08:30;101181.0;;;9.51;88.8
36834;BME280;48003;52.084;5.224;2023-11-21T01:11:43;101181.0;;;9.56;88.42
36834;BME280;48003;52.084;5.224;2023-11-21T01:13:19;101183.0;;;9.51;88.3
36834;BME280;48003;52.084;5.224;2023-11-21T01:14:55;101185.0;;;9.53;88.32
36834;BME280;48003;52.084;5.224;2023-11-21T01:18:08;101187.0;;;9.56;88.52
36834;BME280;48003;52.084;5.224;2023-11-21T01:19:44;101186.0;;;9.56;88.63
36834;BME280;48003;52.084;5.224;2023-11-21T01:21:20;101188.0;;;9.52;88.85
36834;BME280;48003;52.084;5.224;2023-11-21T01:24:32;101188.0;;;9.56;88.88
36834;BME280;48003;52.084;5.224;2023-11-21T01:26:08;101184.0;;;9.61;88.92
36834;BME280;48003;52.084;5.224;2023-11-21T01:27:44;101187.0;;;9.65;88.77
36834;BME280;48003;52.084;5.224;2023-11-21T01:29:20;101191.0;;;9.6;89.16
36834;BME280;48003;52.084;5.224;2023-11-21T01:32:32;101188.0;;;9.6;89.01
36834;BME280;48003;52.084;5.224;2023-11-21T01:34:08;101187.0;;;9.59;88.75
36834;BME280;48003;52.084;5.224;2023-11-21T01:35:45;101189.0;;;9.59;88.75
36834;BME280;48003;52.084;5.224;2023-11-21T01:38:57;101193.0;;;9.69;88.54
36834;BME280;48003;52.084;5.224;2023-11-21T01:40:33;101196.0;;;9.68;87.91
36834;BME280;48003;52.084;5.224;2023-11-21T01:42:09;101197.0;;;9.63;88.12
36834;BME280;48003;52.084;5.224;2023-11-21T01:45:21;101197.0;;;9.64;88.22
36834;BME280;48003;52.084;5.224;2023-11-21T01:46:57;101198.0;;;9.64;88.12
36834;BME280;48003;52.084;5.224;2023-11-21T01:48:34;101197.0;;;9.66;88.35
36834;BME280;48003;52.084;5.224;2023-11-21T01:50:14;101203.0;;;9.72;88.22
36834;BME280;48003;52.084;5.224;2023-11-21T01:53:28;101205.0;;;9.81;88.12
36834;BME280;48003;52.084;5.224;2023-11-21T01:55:05;101206.0;;;9.89;87.53
36834;BME280;48003;52.084;5.224;2023-11-21T01:56:44;101210.0;;;9.92;87.28
36834;BME280;48003;52.084;5.224;2023-11-21T01:59:58;101214.0;;;9.99;87.12
36834;BME280;48003;52.084;5.224;2023-11-21T02:01:37;101218.0;;;9.89;87.57
36834;BME280;48003;52.084;5.224;2023-11-21T02:03:13;101221.0;;;9.82;88.16
36834;BME280;48003;52.084;5.224;2023-11-21T02:04:49;101230.0;;;9.8;88.65
36834;BME280;48003;52.084;5.224;2023-11-21T02:08:02;101230.0;;;9.76;89.04
36834;BME280;48003;52.084;5.224;2023-11-21T02:09:38;101235.0;;;9.77;89.58
36834;BME280;48003;52.084;5.224;2023-11-21T02:11:14;101237.0;;;9.76;89.51
36834;BME280;48003;52.084;5.224;2023-11-21T02:14:27;101238.0;;;9.77;89.71
36834;BME280;48003;52.084;5.224;2023-11-21T02:16:05;101239.0;;;9.83;89.69
36834;BME280;48003;52.084;5.224;2023-11-21T02:17:41;101246.0;;;9.92;89.45
36834;BME280;48003;52.084;5.224;2023-11-21T02:20:55;101248.0;;;9.96;89.24
36834;BME280;48003;52.084;5.224;2023-11-21T02:22:37;101242.0;;;9.97;89.37
36834;BME280;48003;52.084;5.224;2023-11-21T02:24:15;101243.0;;;10.06;88.95
36834;BME280;48003;52.084;5.224;2023-11-21T02:25:51;101245.0;;;10.23;88.31
36834;BME280;48003;52.084;5.224;2023-11-21T02:29:03;101242.0;;;10.29;88.01
36834;BME280;48003;52.084;5.224;2023-11-21T02:30:40;101246.0;;;10.26;87.97
36834;BME280;48003;52.084;5.224;2023-11-21T02:32:16;101245.0;;;10.27;88.06
36834;BME280;48003;52.084;5.224;2023-11-21T02:35:28;101248.0;;;10.21;88.6
36834;BME280;48003;52.084;5.224;2023-11-21T02:37:04;101244.0;;;10.21;88.67
36834;BME280;48003;52.084;5.224;2023-11-21T02:38:40;101246.0;;;10.24;88.46
36834;BME280;48003;52.084;5.224;2023-11-21T02:41:52;101245.0;;;10.32;88.4
36834;BME280;48003;52.084;5.224;2023-11-21T02:43:28;101249.0;;;10.25;88.68
36834;BME280;48003;52.084;5.224;2023-11-21T02:45:06;101252.0;;;10.17;89.02
36834;BME280;48003;52.084;5.224;2023-11-21T02:46:42;101255.0;;;10.15;89.31
36834;BME280;48003;52.084;5.224;2023-11-21T02:49:55;101251.0;;;10.13;89.66
36834;BME280;48003;52.084;5.224;2023-11-21T02:51:31;101253.0;;;10.1;89.74
36834;BME280;48003;52.084;5.224;2023-11-21T02:53:08;101255.0;;;10.14;89.79
36834;BME280;48003;52.084;5.224;2023-11-21T02:56:20;101251.0;;;10.23;89.83
36834;BME280;48003;52.084;5.224;2023-11-21T02:57:56;101253.0;;;10.26;89.63
36834;BME280;48003;52.084;5.224;2023-11-21T02:59:32;101249.0;;;10.29;89.69
36834;BME280;48003;52.084;5.224;2023-11-21T03:02:45;101248.0;;;10.24;90.01
36834;BME280;48003;52.084;5.224;2023-11-21T03:04:20;101250.0;;;10.23;90.25
36834;BME280;48003;52.084;5.224;2023-11-21T03:05:57;101249.0;;;10.23;90.34
36834;BME280;48003;52.084;5.224;2023-11-21T03:07:33;101250.0;;;10.26;90.25
36834;BME280;48003;52.084;5.224;2023-11-21T03:10:45;101255.0;;;10.32;90.23
36834;BME280;48003;52.084;5.224;2023-11-21T03:12:21;101251.0;;;10.35;90.05
36834;BME280;48003;52.084;5.224;2023-11-21T03:13:57;101251.0;;;10.51;89.57
36834;BME280;48003;52.084;5.224;2023-11-21T03:17:09;101250.0;;;10.46;89.59
36834;BME280;48003;52.084;5.224;2023-11-21T03:18:45;101251.0;;;10.42;89.89
36834;BME280;48003;52.084;5.224;2023-11-21T03:20:21;101249.0;;;10.54;89.63
36834;BME280;48003;52.084;5.224;2023-11-21T03:23:34;101255.0;;;10.5;89.73
36834;BME280;48003;52.084;5.224;2023-11-21T03:25:10;101257.0;;;10.49;89.64
36834;BME280;48003;52.084;5.224;2023-11-21T03:26:46;101263.0;;;10.6;89.47
36834;BME280;48003;52.084;5.224;2023-11-21T03:29:58;101259.0;;;10.57;89.45
36834;BME280;48003;52.084;5.224;2023-11-21T03:31:34;101259.0;;;10.65;89.37
36834;BME280;48003;52.084;5.224;2023-11-21T03:33:10;101255.0;;;10.79;89.07
36834;BME280;48003;52.084;5.224;2023-11-21T03:34:55;101257.0;;;10.75;88.89
36834;BME280;48003;52.084;5.224;2023-11-21T03:38:07;101263.0;;;10.79;88.72
36834;BME280;48003;52.084;5.224;2023-11-21T03:39:45;101259.0;;;10.68;88.97
36834;BME280;48003;52.084;5.224;2023-11-21T03:41:21;101259.0;;;10.69;88.76
36834;BME280;48003;52.084;5.224;2023-11-21T03:44:34;101259.0;;;10.8;88.8
36834;BME280;48003;52.084;5.224;2023-11-21T03:46:10;101263.0;;;10.74;88.86
36834;BME280;48003;52.084;5.224;2023-11-21T03:47:46;101267.0;;;10.67;89.61
36834;BME280;48003;52.084;5.224;2023-11-21T03:50:58;101271.0;;;10.6;90.21
36834;BME280;48003;52.084;5.224;2023-11-21T03:52:35;101274.0;;;10.58;90.57
36834;BME280;48003;52.084;5.224;2023-11-21T03:54:10;101275.0;;;10.58;90.79
36834;BME280;48003;52.084;5.224;2023-11-21T03:55:46;101275.0;;;10.55;90.87
36834;BME280;48003;52.084;5.224;2023-11-21T03:58:58;101275.0;;;10.56;90.89
36834;BME280;48003;52.084;5.224;2023-11-21T04:00:35;101280.0;;;10.56;90.97
36834;BME280;48003;52.084;5.224;2023-11-21T04:02:11;101283.0;;;10.54;91.27
36834;BME280;48003;52.084;5.224;2023-11-21T04:05:23;101286.0;;;10.66;90.74
36834;BME280;48003;52.084;5.224;2023-11-21T04:06:59;101288.0;;;10.73;90.27
36834;BME280;48003;52.084;5.224;2023-11-21T04:08:35;101287.0;;;10.82;89.98
36834;BME280;48003;52.084;5.224;2023-11-21T04:11:47;101291.0;;;10.79;90.0
36834;BME280;48003;52.084;5.224;2023-11-21T04:13:23;101297.0;;;10.72;90.47
36834;BME280;48003;52.084;5.224;2023-11-21T04:14:59;101306.0;;;10.71;90.84
36834;BME280;48003;52.084;5.224;2023-11-21T04:16:36;101300.0;;;10.7;90.78
36834;BME280;48003;52.084;5.224;2023-11-21T04:19:48;101303.0;;;10.67;90.99
36834;BME280;48003;52.084;5.224;2023-11-21T04:21:24;101302.0;;;10.74;90.81
36834;BME280;48003;52.084;5.224;2023-11-21T04:23:00;101305.0;;;10.72;91.32
36834;BME280;48003;52.084;5.224;2023-11-21T04:26:12;101305.0;;;10.71;91.29
36834;BME280;48003;52.084;5.224;2023-11-21T04:27:48;101314.0;;;10.71;91.7
36834;BME280;48003;52.084;5.224;2023-11-21T04:29:24;101316.0;;;10.71;91.8
36834;BME280;48003;52.084;5.224;2023-11-21T04:32:37;101318.0;;;10.68;91.78
36834;BME280;48003;52.084;5.224;2023-11-21T04:34:13;101320.0;;;10.7;91.72
36834;BME280;48003;52.084;5.224;2023-11-21T04:35:49;101330.0;;;10.68;91.78
36834;BME280;48003;52.084;5.224;2023-11-21T04:39:01;101336.0;;;10.7;92.0
36834;BME280;48003;52.084;5.224;2023-11-21T04:40:37;101335.0;;;10.7;92.11
36834;BME280;48003;52.084;5.224;2023-11-21T04:42:13;101341.0;;;10.71;92.06
36834;BME280;48003;52.084;5.224;2023-11-21T04:43:49;101341.0;;;10.71;92.09
36834;BME280;48003;52.084;5.224;2023-11-21T04:47:01;101339.0;;;10.72;92.34
36834;BME280;48003;52.084;5.224;2023-11-21T04:48:38;101341.0;;;10.73;92.17
36834;BME280;48003;52.084;5.224;2023-11-21T04:50:15;101340.0;;;10.75;92.27
36834;BME280;48003;52.084;5.224;2023-11-21T04:53:27;101339.0;;;10.75;92.28
36834;BME280;48003;52.084;5.224;2023-11-21T04:55:03;101342.0;;;10.76;92.34
36834;BME280;48003;52.084;5.224;2023-11-21T04:56:40;101339.0;;;10.9;91.97
36834;BME280;48003;52.084;5.224;2023-11-21T04:59:53;101340.0;;;10.89;91.78
36834;BME280;48003;52.084;5.224;2023-11-21T05:01:29;101346.0;;;10.88;91.89
36834;BME280;48003;52.084;5.224;2023-11-21T05:03:06;101349.0;;;10.9;91.94
36834;BME280;48003;52.084;5.224;2023-11-21T05:04:42;101353.0;;;10.9;92.18
36834;BME280;48003;52.084;5.224;2023-11-21T05:07:54;101352.0;;;10.9;92.18
36834;BME280;48003;52.084;5.224;2023-11-21T05:09:31;101355.0;;;10.92;91.94
36834;BME280;48003;52.084;5.224;2023-11-21T05:11:07;101358.0;;;10.9;92.17
36834;BME280;48003;52.084;5.224;2023-11-21T05:14:19;101361.0;;;10.88;92.46
36834;BME280;48003;52.084;5.224;2023-11-21T05:15:55;101364.0;;;10.87;92.56
36834;BME280;48003;52.084;5.224;2023-11-21T05:17:32;101363.0;;;10.89;92.62
36834;BME280;48003;52.084;5.224;2023-11-21T05:20:44;101365.0;;;10.97;92.35
36834;BME280;48003;52.084;5.224;2023-11-21T05:22:20;101360.0;;;11.06;91.87
36834;BME280;48003;52.084;5.224;2023-11-21T05:23:56;101361.0;;;11.14;91.4
36834;BME280;48003;52.084;5.224;2023-11-21T05:27:10;101363.0;;;11.12;91.26
36834;BME280;48003;52.084;5.224;2023-11-21T05:28:46;101369.0;;;11.05;91.89
36834;BME280;48003;52.084;5.224;2023-11-21T05:30:22;101371.0;;;11.13;91.45
36834;BME280;48003;52.084;5.224;2023-11-21T05:31:58;101374.0;;;11.09;91.75
36834;BME280;48003;52.084;5.224;2023-11-21T05:35:10;101380.0;;;11.08;92.09
36834;BME280;48003;52.084;5.224;2023-11-21T05:36:46;101377.0;;;11.06;92.26
36834;BME280;48003;52.084;5.224;2023-11-21T05:38:22;101380.0;;;11.04;92.53
36834;BME280;48003;52.084;5.224;2023-11-21T05:41:34;101381.0;;;11.02;92.79
36834;BME280;48003;52.084;5.224;2023-11-21T05:43:10;101378.0;;;11.01;92.82
36834;BME280;48003;52.084;5.224;2023-11-21T05:44:46;101382.0;;;11.05;92.79
36834;BME280;48003;52.084;5.224;2023-11-21T05:47:59;101378.0;;;11.2;91.9
36834;BME280;48003;52.084;5.224;2023-11-21T05:49:35;101380.0;;;11.21;91.88
36834;BME280;48003;52.084;5.224;2023-11-21T05:51:11;101394.0;;;11.25;91.65
36834;BME280;48003;52.084;5.224;2023-11-21T05:54:23;101399.0;;;11.23;91.86
36834;BME280;48003;52.084;5.224;2023-11-21T05:55:59;101400.0;;;11.17;92.06
36834;BME280;48003;52.084;5.224;2023-11-21T05:57:37;101406.0;;;11.17;92.34
36834;BME280;48003;52.084;5.224;2023-11-21T05:59:14;101408.0;;;11.16;92.41
36834;BME280;48003;52.084;5.224;2023-11-21T06:02:26;101409.0;;;11.16;92.75
36834;BME280;48003;52.084;5.224;2023-11-21T06:04:03;101413.0;;;11.15;92.83
36834;BME280;48003;52.084;5.224;2023-11-21T06:05:39;101414.0;;;11.13;93.13
36834;BME280;48003;52.084;5.224;2023-11-21T06:08:51;101417.0;;;11.12;93.18
36834;BME280;48003;52.084;5.224;2023-11-21T06:10:27;101426.0;;;11.19;93.07
36834;BME280;48003;52.084;5.224;2023-11-21T06:12:03;101431.0;;;11.22;92.83
36834;BME280;48003;52.084;5.224;2023-11-21T06:15:15;101428.0;;;11.33;92.67
36834;BME280;48003;52.084;5.224;2023-11-21T06:16:51;101441.0;;;11.29;92.56
36834;BME280;48003;52.084;5.224;2023-11-21T06:18:27;101440.0;;;11.26;92.56
36834;BME280;48003;52.084;5.224;2023-11-21T06:20:05;101438.0;;;11.27;92.64
36834;BME280;48003;52.084;5.224;2023-11-21T06:23:22;101447.0;;;11.36;92.42
36834;BME280;48003;52.084;5.224;2023-11-21T06:24:58;101447.0;;;11.35;92.6
36834;BME280;48003;52.084;5.224;2023-11-21T06:26:34;101445.0;;;11.33;92.7
36834;BME280;48003;52.084;5.224;2023-11-21T06:29:46;101440.0;;;11.32;92.91
36834;BME280;48003;52.084;5.224;2023-11-21T06:31:22;101444.0;;;11.34;92.89
36834;BME280;48003;52.084;5.224;2023-11-21T06:32:58;101447.0;;;11.38;93.03
36834;BME280;48003;52.084;5.224;2023-11-21T06:36:10;101444.0;;;11.38;93.14
36834;BME280;48003;52.084;5.224;2023-11-21T06:37:46;101447.0;;;11.37;92.83
36834;BME280;48003;52.084;5.224;2023-11-21T06:39:23;101450.0;;;11.38;92.76
36834;BME280;48003;52.084;5.224;2023-11-21T06:40:59;101452.0;;;11.41;92.74
36834;BME280;48003;52.084;5.224;2023-11-21T06:44:11;101456.0;;;11.43;92.62
36834;BME280;48003;52.084;5.224;2023-11-21T06:45:47;101455.0;;;11.4;92.8
36834;BME280;48003;52.084;5.224;2023-11-21T06:47:23;101453.0;;;11.42;92.74
36834;BME280;48003;52.084;5.224;2023-11-21T06:50:35;101457.0;;;11.49;92.84
36834;BME280;48003;52.084;5.224;2023-11-21T06:52:11;101459.0;;;11.62;92.99
36834;BME280;48003;52.084;5.224;2023-11-21T06:53:47;101460.0;;;11.72;93.22
36834;BME280;48003;52.084;5.224;2023-11-21T06:56:59;101464.0;;;11.84;93.07
36834;BME280;48003;52.084;5.224;2023-11-21T06:58:36;101468.0;;;11.93;93.05
36834;BME280;48003;52.084;5.224;2023-11-21T07:00:13;101472.0;;;12.02;93.02
36834;BME280;48003;52.084;5.224;2023-11-21T07:01:51;101478.0;;;12.1;93.07
36834;BME280;48003;52.084;5.224;2023-11-21T07:05:03;101483.0;;;12.17;92.99
36834;BME280;48003;52.084;5.224;2023-11-21T07:06:40;101488.0;;;12.23;92.87
36834;BME280;48003;52.084;5.224;2023-11-21T07:08:16;101489.0;;;12.2;93.32
36834;BME280;48003;52.084;5.224;2023-11-21T07:11:28;101490.0;;;12.33;93.1
36834;BME280;48003;52.084;5.224;2023-11-21T07:13:04;101493.0;;;12.35;93.07
36834;BME280;48003;52.084;5.224;2023-11-21T07:14:40;101495.0;;;12.33;93.28
36834;BME280;48003;52.084;5.224;2023-11-21T07:17:52;101502.0;;;12.34;93.45
36834;BME280;48003;52.084;5.224;2023-11-21T07:19:29;101506.0;;;12.38;93.27
36834;BME280;48003;52.084;5.224;2023-11-21T07:21:05;101508.0;;;12.38;93.58
36834;BME280;48003;52.084;5.224;2023-11-21T07:24:17;101509.0;;;12.46;93.61
36834;BME280;48003;52.084;5.224;2023-11-21T07:25:53;101510.0;;;12.48;93.48
36834;BME280;48003;52.084;5.224;2023-11-21T07:27:29;101509.0;;;12.58;93.14
36834;BME280;48003;52.084;5.224;2023-11-21T07:29:06;101508.0;;;12.59;93.04
36834;BME280;48003;52.084;5.224;2023-11-21T07:32:18;101510.0;;;12.57;92.88
36834;BME280;48003;52.084;5.224;2023-11-21T07:33:55;101512.0;;;12.58;93.02
36834;BME280;48003;52.084;5.224;2023-11-21T07:35:31;101514.0;;;12.64;93.06
36834;BME280;48003;52.084;5.224;2023-11-21T07:38:44;101517.0;;;12.69;92.67
36834;BME280;48003;52.084;5.224;2023-11-21T07:40:20;101521.0;;;12.72;92.7
36834;BME280;48003;52.084;5.224;2023-11-21T07:41:56;101517.0;;;12.69;92.72
36834;BME280;48003;52.084;5.224;2023-11-21T07:45:08;101522.0;;;12.7;92.96
36834;BME280;48003;52.084;5.224;2023-11-21T07:46:44;101526.0;;;12.7;93.23
36834;BME280;48003;52.084;5.224;2023-11-21T07:48:20;101528.0;;;12.73;93.2
36834;BME280;48003;52.084;5.224;2023-11-21T07:51:32;101534.0;;;12.74;93.16
36834;BME280;48003;52.084;5.224;2023-11-21T07:53:08;101540.0;;;12.82;93.0
36834;BME280;48003;52.084;5.224;2023-11-21T07:54:44;101539.0;;;12.86;93.03
36834;BME280;48003;52.084;5.224;2023-11-21T07:56:21;101534.0;;;12.95;92.36
36834;BME280;48003;52.084;5.224;2023-11-21T07:59:33;101544.0;;;12.94;92.39
36834;BME280;48003;52.084;5.224;2023-11-21T08:01:09;101550.0;;;12.92;92.52
36834;BME280;48003;52.084;5.224;2023-11-21T08:02:45;101555.0;;;12.91;92.57
36834;BME280;48003;52.084;5.224;2023-11-21T08:05:57;101557.0;;;12.91;92.81
36834;BME280;48003;52.084;5.224;2023-11-21T08:07:34;101563.0;;;12.93;92.89
36834;BME280;48003;52.084;5.224;2023-11-21T08:09:10;101564.0;;;12.92;93.04
36834;BME280;48003;52.084;5.224;2023-11-21T08:12:22;101565.0;;;12.94;93.13
36834;BME280;48003;52.084;5.224;2023-11-21T08:13:59;101569.0;;;12.98;92.99
36834;BME280;48003;52.084;5.224;2023-11-21T08:15:35;101574.0;;;12.95;93.19
36834;BME280;48003;52.084;5.224;2023-11-21T08:17:11;101580.0;;;12.98;93.24
36834;BME280;48003;52.084;5.224;2023-11-21T08:20:23;101585.0;;;13.07;92.91
36834;BME280;48003;52.084;5.224;2023-11-21T08:21:59;101592.0;;;13.09;92.94
36834;BME280;48003;52.084;5.224;2023-11-21T08:23:35;101599.0;;;13.03;93.39
36834;BME280;48003;52.084;5.224;2023-11-21T08:26:48;101596.0;;;13.03;93.31
36834;BME280;48003;52.084;5.224;2023-11-21T08:28:24;101603.0;;;13.09;93.34
36834;BME280;48003;52.084;5.224;2023-11-21T08:30:00;101612.0;;;13.18;93.01
36834;BME280;48003;52.084;5.224;2023-11-21T08:33:12;101613.0;;;13.18;92.88
36834;BME280;48003;52.084;5.224;2023-11-21T08:34:48;101617.0;;;13.19;92.77
36834;BME280;48003;52.084;5.224;2023-11-21T08:36:25;101621.0;;;13.15;92.91
36834;BME280;48003;52.084;5.224;2023-11-21T08:39:38;101624.0;;;13.15;92.83
36834;BME280;48003;52.084;5.224;2023-11-21T08:41:14;101624.0;;;13.16;93.1
36834;BME280;48003;52.084;5.224;2023-11-21T08:42:51;101630.0;;;13.21;92.93
36834;BME280;48003;52.084;5.224;2023-11-21T08:44:27;101631.0;;;13.19;92.86
36834;BME280;48003;52.084;5.224;2023-11-21T08:47:39;101627.0;;;13.16;93.21
36834;BME280;48003;52.084;5.224;2023-11-21T08:49:15;101625.0;;;13.22;93.06
36834;BME280;48003;52.084;5.224;2023-11-21T08:50:51;101623.0;;;13.15;93.03
36834;BME280;48003;52.084;5.224;2023-11-21T08:54:03;101626.0;;;13.1;93.66
36834;BME280;48003;52.084;5.224;2023-11-21T08:55:39;101628.0;;;13.16;93.51
36834;BME280;48003;52.084;5.224;2023-11-21T08:57:15;101633.0;;;13.14;93.99
36834;BME280;48003;52.084;5.224;2023-11-21T09:00:27;101639.0;;;13.23;93.99
36834;BME280;48003;52.084;5.224;2023-11-21T09:02:04;101646.0;;;13.23;94.25
36834;BME280;48003;52.084;5.224;2023-11-21T09:03:39;101646.0;;;13.29;93.92
36834;BME280;48003;52.084;5.224;2023-11-21T09:06:52;101647.0;;;13.41;93.62
36834;BME280;48003;52.084;5.224;2023-11-21T09:08:28;101650.0;;;13.44;93.73
36834;BME280;48003;52.084;5.224;2023-11-21T09:10:05;101664.0;;;13.55;93.48
36834;BME280;48003;52.084;5.224;2023-11-21T09:11:41;101664.0;;;13.58;93.42
36834;BME280;48003;52.084;5.224;2023-11-21T09:14:53;101664.0;;;13.62;93.56
36834;BME280;48003;52.084;5.224;2023-11-21T09:16:29;101670.0;;;13.59;93.64
36834;BME280;48003;52.084;5.224;2023-11-21T09:18:05;101673.0;;;13.66;93.41
36834;BME280;48003;52.084;5.224;2023-11-21T09:21:18;101676.0;;;13.67;93.17
36834;BME280;48003;52.084;5.224;2023-11-21T09:22:54;101672.0;;;13.74;92.54
36834;BME280;48003;52.084;5.224;2023-11-21T09:24:29;101669.0;;;13.71;92.46
36834;BME280;48003;52.084;5.224;2023-11-21T09:27:42;101678.0;;;13.69;92.33
36834;BME280;48003;52.084;5.224;2023-11-21T09:29:18;101675.0;;;13.67;92.59
36834;BME280;48003;52.084;5.224;2023-11-21T09:30:54;101688.0;;;13.57;92.84
36834;BME280;48003;52.084;5.224;2023-11-21T09:32:30;101694.0;;;13.57;92.75
36834;BME280;48003;52.084;5.224;2023-11-21T09:35:42;101703.0;;;13.69;92.34
36834;BME280;48003;52.084;5.224;2023-11-21T09:37:18;101706.0;;;13.76;91.66
36834;BME280;48003;52.084;5.224;2023-11-21T09:38:55;101705.0;;;13.75;91.4
36834;BME280;48003;52.084;5.224;2023-11-21T09:42:10;101706.0;;;13.73;91.28
36834;BME280;48003;52.084;5.224;2023-11-21T09:43:47;101710.0;;;13.68;91.52
36834;BME280;48003;52.084;5.224;2023-11-21T09:45:29;101717.0;;;13.58;91.62
36834;BME280;48003;52.084;5.224;2023-11-21T09:47:09;101715.0;;;13.6;91.32
36834;BME280;48003;52.084;5.224;2023-11-21T09:50:27;101722.0;;;13.58;91.39
36834;BME280;48003;52.084;5.224;2023-11-21T09:52:07;101725.0;;;13.65;91.08
36834;BME280;48003;52.084;5.224;2023-11-21T09:53:47;101725.0;;;13.67;90.81
36834;BME280;48003;52.084;5.224;2023-11-21T09:57:03;101732.0;;;13.66;90.71
36834;BME280;48003;52.084;5.224;2023-11-21T09:58:40;101730.0;;;13.57;90.78
36834;BME280;48003;52.084;5.224;2023-11-21T10:00:18;101738.0;;;13.58;91.07
36834;BME280;48003;52.084;5.224;2023-11-21T10:01:56;101741.0;;;13.52;91.13
36834;BME280;48003;52.084;5.224;2023-11-21T10:05:11;101739.0;;;13.6;90.67
36834;BME280;48003;52.084;5.224;2023-11-21T10:06:47;101745.0;;;13.61;90.92
36834;BME280;48003;52.084;5.224;2023-11-21T10:08:24;101746.0;;;13.69;90.26
36834;BME280;48003;52.084;5.224;2023-11-21T10:11:40;101742.0;;;13.65;90.53
36834;BME280;48003;52.084;5.224;2023-11-21T10:13:18;101749.0;;;13.68;90.22
36834;BME280;48003;52.084;5.224;2023-11-21T10:14:54;101749.0;;;13.62;90.37
36834;BME280;48003;52.084;5.224;2023-11-21T10:16:34;101755.0;;;13.61;90.13
36834;BME280;48003;52.084;5.224;2023-11-21T10:19:47;101761.0;;;13.58;90.38
36834;BME280;48003;52.084;5.224;2023-11-21T10:21:24;101769.0;;;13.56;90.37
36834;BME280;48003;52.084;5.224;2023-11-21T10:23:00;101780.0;;;13.58;90.38
36834;BME280;48003;52.084;5.224;2023-11-21T10:26:13;101782.0;;;13.59;90.16
36834;BME280;48003;52.084;5.224;2023-11-21T10:27:49;101785.0;;;13.56;90.04
36834;BME280;48003;52.084;5.224;2023-11-21T10:29:28;101786.0;;;13.5;90.05
36834;BME280;48003;52.084;5.224;2023-11-21T10:31:06;101792.0;;;13.51;89.65
36834;BME280;48003;52.084;5.224;2023-11-21T10:34:20;101799.0;;;13.56;89.47
36834;BME280;48003;52.084;5.224;2023-11-21T10:35:57;101798.0;;;13.52;89.34
36834;BME280;48003;52.084;5.224;2023-11-21T10:37:33;101805.0;;;13.58;89.17
36834;BME280;48003;52.084;5.224;2023-11-21T10:40:51;101810.0;;;13.52;88.97
36834;BME280;48003;52.084;5.224;2023-11-21T10:42:27;101818.0;;;13.52;89.09
36834;BME280;48003;52.084;5.224;2023-11-21T10:44:04;101819.0;;;13.47;89.05
36834;BME280;48003;52.084;5.224;2023-11-21T10:47:16;101822.0;;;13.47;89.04
36834;BME280;48003;52.084;5.224;2023-11-21T10:48:53;101825.0;;;13.51;88.58
36834;BME280;48003;52.084;5.224;2023-11-21T10:50:28;101832.0;;;13.45;88.39
36834;BME280;48003;52.084;5.224;2023-11-21T10:52:04;101839.0;;;13.46;88.41
36834;BME280;48003;52.084;5.224;2023-11-21T10:55:17;101843.0;;;13.39;88.68
36834;BME280;48003;52.084;5.224;2023-11-21T10:56:57;101846.0;;;13.44;88.35
36834;BME280;48003;52.084;5.224;2023-11-21T10:58:34;101846.0;;;13.43;88.15
36834;BME280;48003;52.084;5.224;2023-11-21T11:01:52;101850.0;;;13.38;88.4
36834;BME280;48003;52.084;5.224;2023-11-21T11:03:28;101847.0;;;13.4;88.03
36834;BME280;48003;52.084;5.224;2023-11-21T11:05:05;101849.0;;;13.35;88.45
36834;BME280;48003;52.084;5.224;2023-11-21T11:06:42;101848.0;;;13.34;88.66
36834;BME280;48003;52.084;5.224;2023-11-21T11:09:58;101850.0;;;13.4;88.48